Prairie Center, Nebraska
Current Conditions -  °F | °C
As of 4:35 PM on Thursday 20 Nov 2014 (Local Time) from KEAR Reporting Station
Clear Clear  
Wind Chill: 31°   Ceiling: Unl
Heat Index: 37°   Visibility: 10mi
Dew Point: 19°   Wind: 8mph
Humidity: 48%   Direction: 100°E
Pressure: 30.1"   Gusts: NA
Location:  40.7619°N, 99.1445°W
Report Text: KEAR 202235Z 10007KT 10SM CLR 03/M07 A3010 RMK AO1
Loading
Personal Weather Stations






























Interactive Weather Map New forecast layout! Learn more

10-Day Weather Forecast

Advertisements
Track Severe Weather on mobile